Liberal Mid-America Regional Airport
KLBL : rendu visible

Aérodrome :











RETROUVEZ-NOUS SUR...

 
LOGIN :

S'inscrire | Disclaimer

   EN    FR    IT 

 









Légende :    VFR   VFR Marginal   IFR   IFR Intensif   IFR Très Intensif
Visi : 
Plafond : 
>= 8 km
>= 3000ft
5 à 8 km
1000 à 3000 ft
1500m à 5 km
500 à 1000 ft
800 à 1500m
200 à 500 ft
< 800m
< 200 ft
Symboles :   Orages  Brouillard  Fortes neiges  Fortes précipitations  Vent > 20 kt






- Altitude de l'aérodrome : 2885 ft
- Code IATA : LBL


KLBL - Liberal Mid-America Regional

DERNIER METAR :
  • 191456Z AUTO 16006KT 10SM CLR 08/01 A2992 RMK AO2 SLP133 T00780006 58003

METARs EXPIRÉS :
  • 191356Z AUTO 00000KT 10SM CLR 02/M02 A2993 RMK AO2 SLP140 T00221017 FZRANO
  • 191256Z AUTO 00000KT 10SM CLR 01/M03 A2993 RMK AO2 SLP140 T00061033 FZRANO

TAF KLBL
Valide du 19 à 15h jusqu'au 20 à 12h UTC


191505Z 1915/2012 VRB06KT P6SM SCT250
FM191700 17020G30KT P6SM SKC
FM200000 15015KT P6SM SKC
FM200300 15012KT P6SM SKC
FM200600 14010KT P6SM OVC200



MET'MAP, la Météo Aéronautique d'un coup d'oeil ! - Copyright ORBIFLY Décembre 2007 - Disclaimer

ORBIFLY MET'MAP TEAM :

Programmation & Développement : Alexandra Zaïnal
Conception & Développement : Baudouin d'Aumeries
Co-Programmation & Développement : Marc-Olivier Méhu
Soutien technique & logistique : Manuel Goepfert

Contact : metmap@orbifly.com




SOURCES & CREDITS :

   NOAA       Earth
Advisory